No particular awareness of the weather is required.    There are no Weather-warnings


Meteo18 Weather Cam more information Meteo18 Weather Cam


Thunder radar more information blitzortung!


Rain radar more information rain snow radar


Visit our other weather sites:

Template documentation
and downloads

And another site



Weather Underground History page Text

Daily Summary for September 26, 2017 Units:  English    Metric   Both
« Previous Day
Next Day »
Daily Weekly Monthly Yearly Custom
  High: Low: Average:
Temperature: TemperatureC °F 13.2 °F 15.6 °F
Dew Point: DewpointC °F 12.6 °F 14.1 °F
Humidity: Humidity % 74 % 91 %
Wind Speed: WindSpeedKMH mph 0.0 mph 1.7 mph
Wind Gust: WindSpeedGustKMH mph - -
Wind:- - WSW
Pressure: PressurehPa in 1020.2 in -
Precipitation: 0.3 in    
Historical Graphs
 
 
Tabular Data for September 26, 2017
Time Temperature Dew Point Pressure Wind Wind Speed Wind Gust Humidity Rainfall Rate (Hourly)
TemperatureC °F DewpointC °F PressurehPa in Calm     Humidity % HourlyPrecipMM in
00:02 14.2 °F 13.6 °F 1021.2 in Calm     96 % 0.0 in
00:12 14.2 °F 13.7 °F 1021.2 in Calm     97 % 0.0 in
00:17 14.2 °F 13.7 °F 1021.2 in Calm     97 % 0.0 in
00:22 14.3 °F 13.8 °F 1021.2 in Calm     97 % 0.0 in
00:32 14.3 °F 13.8 °F 1021.2 in Calm   3.2 mph 97 % 0.0 in
00:37 14.3 °F 13.8 °F 1021.2 in Calm   3.2 mph 97 % 0.0 in
00:42 14.3 °F 13.8 °F 1021.2 in Calm   1.6 mph 97 % 0.0 in
00:47 14.3 °F 13.8 °F 1021.2 in Calm   1.6 mph 97 % 0.0 in
00:57 14.2 °F 13.7 °F 1020.9 in Calm     97 % 0.0 in
01:02 14.2 °F 13.7 °F 1020.9 in Calm     97 % 0.0 in
01:12 14.2 °F 13.7 °F 1020.9 in Calm     97 % 0.0 in
01:17 14.3 °F 13.8 °F 1020.9 in Calm     97 % 0.0 in
01:22 14.3 °F 13.8 °F 1020.9 in Calm     97 % 0.0 in
01:32 14.4 °F 13.9 °F 1020.9 in Calm     97 % 0.0 in
01:42 14.4 °F 13.9 °F 1020.9 in Calm     97 % 0.0 in
01:47 14.4 °F 13.9 °F 1020.9 in Calm     97 % 0.0 in
01:52 14.4 °F 13.9 °F 1020.9 in Calm     97 % 0.0 in
01:57 14.4 °F 13.9 °F 1020.9 in West 1.6 mph 4.8 mph 97 % 0.0 in
02:02 14.4 °F 13.9 °F 1020.9 in West 1.6 mph 4.8 mph 97 % 0.0 in
02:12 14.5 °F 14.0 °F 1020.9 in Calm   4.8 mph 97 % 0.0 in
02:17 14.5 °F 13.9 °F 1020.9 in Calm   1.6 mph 96 % 0.0 in
02:22 14.6 °F 14.0 °F 1020.5 in Calm   1.6 mph 96 % 0.0 in
02:27 14.5 °F 13.9 °F 1020.5 in Calm   3.2 mph 96 % 0.0 in
02:32 14.4 °F 13.8 °F 1020.5 in Calm   3.2 mph 96 % 0.0 in
02:37 14.3 °F 13.7 °F 1020.5 in Calm   1.6 mph 96 % 0.0 in
02:42 14.4 °F 13.8 °F 1020.5 in Calm   1.6 mph 96 % 0.0 in
02:52 14.4 °F 13.8 °F 1020.5 in Calm   1.6 mph 96 % 0.0 in
03:02 14.2 °F 13.6 °F 1020.5 in Calm     96 % 0.0 in
03:12 14.2 °F 13.6 °F 1020.5 in Calm     96 % 0.0 in
03:17 14.2 °F 13.6 °F 1020.5 in Calm     96 % 0.0 in
03:22 14.1 °F 13.5 °F 1020.5 in Calm     96 % 0.0 in
03:27 14.1 °F 13.5 °F 1020.5 in Calm     96 % 0.0 in
03:32 14.1 °F 13.5 °F 1020.5 in Calm     96 % 0.0 in
03:42 14.1 °F 13.5 °F 1020.5 in Calm     96 % 0.0 in
03:47 14.0 °F 13.4 °F 1020.5 in Calm     96 % 0.0 in
03:52 13.9 °F 13.3 °F 1020.5 in Calm     96 % 0.0 in
03:57 13.8 °F 13.2 °F 1020.5 in Calm     96 % 0.0 in
04:02 13.7 °F 13.1 °F 1020.5 in Calm     96 % 0.0 in
04:12 13.8 °F 13.2 °F 1020.5 in SW 1.6 mph   96 % 0.0 in
04:22 13.8 °F 13.2 °F 1020.5 in Calm   3.2 mph 96 % 0.0 in
04:32 13.6 °F 13.0 °F 1020.5 in Calm   3.2 mph 96 % 0.0 in
04:37 13.6 °F 13.0 °F 1020.5 in Calm   4.8 mph 96 % 0.0 in
04:42 13.6 °F 13.0 °F 1020.2 in SW 1.6 mph 4.8 mph 96 % 0.0 in
04:47 13.7 °F 13.2 °F 1020.5 in WSW 1.6 mph 4.8 mph 97 % 0.0 in
04:52 13.8 °F 13.3 °F 1020.5 in SW 1.6 mph 4.8 mph 97 % 0.0 in
04:57 13.8 °F 13.3 °F 1020.5 in Calm   4.8 mph 97 % 0.0 in
05:02 13.6 °F 13.0 °F 1020.5 in Calm   4.8 mph 96 % 0.0 in
05:07 13.4 °F 12.8 °F 1020.5 in Calm   4.8 mph 96 % 0.3 in
05:12 13.4 °F 12.8 °F 1020.5 in Calm   4.8 mph 96 % 0.3 in
05:22 13.3 °F 12.7 °F 1020.5 in Calm     96 % 0.3 in
05:27 13.2 °F 12.6 °F 1020.5 in Calm   1.6 mph 96 % 0.3 in
05:32 13.2 °F 12.7 °F 1020.5 in Calm   1.6 mph 97 % 0.3 in
05:42 13.3 °F 12.8 °F 1020.5 in Calm     97 % 0.3 in
05:52 13.4 °F 12.9 °F 1020.5 in Calm     97 % 0.3 in
06:02 13.6 °F 13.1 °F 1020.5 in Calm     97 % 0.3 in
06:12 13.5 °F 13.0 °F 1020.5 in Calm     97 % 0.0 in
06:17 13.4 °F 12.9 °F 1020.9 in Calm     97 % 0.0 in
06:22 13.4 °F 12.9 °F 1020.9 in Calm     97 % 0.0 in
06:32 13.4 °F 12.9 °F 1020.9 in Calm     97 % 0.0 in
06:42 13.4 °F 12.9 °F 1020.9 in Calm   1.6 mph 97 % 0.0 in
06:52 13.5 °F 13.0 °F 1020.9 in Calm     97 % 0.0 in
07:02 13.6 °F 13.1 °F 1020.9 in Calm     97 % 0.0 in
07:07 13.6 °F 13.1 °F 1020.9 in Calm   3.2 mph 97 % 0.0 in
07:12 13.7 °F 13.2 °F 1020.9 in Calm   3.2 mph 97 % 0.0 in
07:17 13.8 °F 13.3 °F 1020.9 in Calm   3.2 mph 97 % 0.0 in
07:22 13.8 °F 13.3 °F 1020.9 in Calm   3.2 mph 97 % 0.0 in
07:32 13.8 °F 13.3 °F 1020.9 in Calm     97 % 0.0 in
07:37 13.8 °F 13.3 °F 1021.2 in Calm     97 % 0.0 in
07:42 13.8 °F 13.3 °F 1021.2 in Calm     97 % 0.0 in
07:47 13.8 °F 13.3 °F 1021.2 in Calm     97 % 0.0 in
07:52 13.8 °F 13.3 °F 1021.2 in Calm     97 % 0.0 in
07:57 13.8 °F 13.3 °F 1021.2 in Calm     97 % 0.0 in
08:02 13.7 °F 13.2 °F 1021.6 in Calm     97 % 0.0 in
08:07 13.6 °F 13.1 °F 1021.6 in Calm     97 % 0.0 in
08:17 13.4 °F 12.9 °F 1021.6 in Calm     97 % 0.0 in
08:22 13.5 °F 13.0 °F 1021.6 in Calm     97 % 0.0 in
08:37 13.7 °F 13.2 °F 1021.6 in Calm     97 % 0.0 in
08:42 13.7 °F 13.2 °F 1021.6 in Calm     97 % 0.0 in
08:47 13.8 °F 13.3 °F 1021.6 in Calm     97 % 0.0 in
08:57 13.9 °F 13.4 °F 1021.6 in Calm     97 % 0.0 in
09:02 13.9 °F 13.4 °F 1021.6 in Calm     97 % 0.0 in
09:07 14.0 °F 13.5 °F 1021.6 in Calm     97 % 0.0 in
09:12 14.1 °F 13.6 °F 1021.6 in Calm     97 % 0.0 in
09:17 14.2 °F 13.7 °F 1021.6 in Calm     97 % 0.0 in
09:22 14.2 °F 13.7 °F 1021.6 in Calm     97 % 0.0 in
09:32 14.4 °F 13.9 °F 1021.6 in Calm     97 % 0.0 in
09:42 14.4 °F 13.9 °F 1021.9 in Calm     97 % 0.0 in
09:52 14.5 °F 14.0 °F 1021.9 in Calm     97 % 0.0 in
10:02 14.6 °F 14.1 °F 1021.9 in Calm     97 % 0.0 in
10:12 14.7 °F 14.2 °F 1021.9 in SSW 1.6 mph 6.4 mph 97 % 0.0 in
10:17 14.8 °F 14.3 °F 1021.9 in South 1.6 mph 6.4 mph 97 % 0.0 in
10:22 14.8 °F 14.3 °F 1021.9 in SW 3.2 mph 6.4 mph 97 % 0.0 in
10:27 14.8 °F 14.3 °F 1021.9 in SW 1.6 mph 6.4 mph 97 % 0.0 in
10:37 15.0 °F 14.5 °F 1021.9 in SW 3.2 mph 8.0 mph 97 % 0.0 in
10:42 15.0 °F 14.5 °F 1021.9 in SW 3.2 mph 8.0 mph 97 % 0.0 in
10:47 15.1 °F 14.6 °F 1021.9 in SSW 1.6 mph 8.0 mph 97 % 0.0 in
10:52 15.1 °F 14.6 °F 1021.9 in Calm   6.4 mph 97 % 0.0 in
10:57 15.1 °F 14.6 °F 1021.9 in SSW 1.6 mph 6.4 mph 97 % 0.0 in
11:12 15.3 °F 14.8 °F 1021.9 in SSW 1.6 mph 8.0 mph 97 % 0.0 in
11:17 15.3 °F 14.8 °F 1021.9 in SW 4.8 mph 8.0 mph 97 % 0.0 in
11:22 15.4 °F 14.9 °F 1021.9 in WSW 3.2 mph 9.7 mph 97 % 0.0 in
11:27 15.5 °F 15.0 °F 1021.9 in SSW 4.8 mph 9.7 mph 97 % 0.0 in
11:32 15.5 °F 15.0 °F 1021.9 in SW 9.7 mph 11.3 mph 97 % 0.0 in
11:37 15.6 °F 15.1 °F 1021.9 in SSW 6.4 mph 11.3 mph 97 % 0.0 in
11:42 15.7 °F 15.2 °F 1021.9 in SSW 1.6 mph 11.3 mph 97 % 0.0 in
11:47 15.7 °F 15.1 °F 1021.9 in SSW 3.2 mph 11.3 mph 96 % 0.0 in
11:52 15.8 °F 15.2 °F 1021.9 in SSW 4.8 mph 11.3 mph 96 % 0.0 in
12:02 15.9 °F 15.3 °F 1021.9 in West 4.8 mph 9.7 mph 96 % 0.0 in
12:07 16.0 °F 15.4 °F 1021.9 in SSW 4.8 mph 9.7 mph 96 % 0.0 in
12:12 16.2 °F 15.6 °F 1021.9 in SSE 1.6 mph 9.7 mph 96 % 0.0 in
12:17 16.7 °F 16.1 °F 1021.9 in SW 4.8 mph 9.7 mph 96 % 0.0 in
12:22 16.9 °F 15.9 °F 1021.9 in SSW 6.4 mph 9.7 mph 94 % 0.0 in
12:32 17.2 °F 16.1 °F 1021.9 in SW 1.6 mph 9.7 mph 93 % 0.0 in
12:37 17.7 °F 16.2 °F 1021.9 in SW 9.7 mph 12.9 mph 91 % 0.0 in
12:42 17.7 °F 16.2 °F 1021.9 in West 4.8 mph 12.9 mph 91 % 0.0 in
12:47 17.8 °F 16.0 °F 1021.9 in WSW 9.7 mph 12.9 mph 89 % 0.0 in
12:52 18.2 °F 16.2 °F 1021.9 in SW 9.7 mph 12.9 mph 88 % 0.0 in
13:02 18.3 °F 15.9 °F 1021.9 in WSW 3.2 mph 12.9 mph 86 % 0.0 in
13:12 18.4 °F 16.0 °F 1021.9 in SW 6.4 mph 12.9 mph 86 % 0.0 in
13:17 18.7 °F 15.9 °F 1021.9 in SW 1.6 mph 12.9 mph 84 % 0.0 in
13:22 18.7 °F 15.8 °F 1021.9 in SSW 4.8 mph 17.7 mph 83 % 0.0 in
13:32 18.4 °F 15.8 °F 1021.9 in WSW 8.0 mph 17.7 mph 85 % 0.0 in
13:37 18.6 °F 16.2 °F 1021.9 in SW 16.1 mph 17.7 mph 86 % 0.0 in
13:42 18.5 °F 15.9 °F 1021.9 in WSW 8.0 mph 17.7 mph 85 % 0.0 in
13:47 18.8 °F 16.2 °F 1021.9 in SSW 8.0 mph 17.7 mph 85 % 0.0 in
13:52 18.8 °F 15.5 °F 1021.9 in West 6.4 mph 17.7 mph 81 % 0.0 in
13:57 18.8 °F 15.5 °F 1021.9 in SW 9.7 mph 17.7 mph 81 % 0.0 in
14:02 18.4 °F 15.3 °F 1021.9 in West 6.4 mph 17.7 mph 82 % 0.0 in
14:12 18.4 °F 15.3 °F 1021.9 in WSW 8.0 mph 20.9 mph 82 % 0.0 in
14:17 18.6 °F 15.5 °F 1021.9 in South 11.3 mph 20.9 mph 82 % 0.0 in
14:22 18.7 °F 15.0 °F 1021.9 in SW 11.3 mph 16.1 mph 79 % 0.0 in
14:27 18.7 °F 15.2 °F 1021.9 in SW 14.5 mph 16.1 mph 80 % 0.0 in
14:42 18.9 °F 15.6 °F 1021.9 in WSW 4.8 mph 22.5 mph 81 % 0.0 in
14:52 18.4 °F 15.1 °F 1021.9 in West 8.0 mph 22.5 mph 81 % 0.0 in
15:02 18.3 °F 15.2 °F 1021.9 in WNW 4.8 mph 17.7 mph 82 % 0.0 in
15:07 18.4 °F 15.1 °F 1021.9 in West 3.2 mph 17.7 mph 81 % 0.0 in
15:12 18.6 °F 15.3 °F 1021.9 in WSW 3.2 mph 16.1 mph 81 % 0.0 in
15:17 18.5 °F 15.0 °F 1021.9 in WNW 3.2 mph 16.1 mph 80 % 0.0 in
15:22 18.4 °F 14.9 °F 1021.9 in WNW 3.2 mph 9.7 mph 80 % 0.0 in
15:32 18.6 °F 15.1 °F 1021.6 in WSW 3.2 mph 9.7 mph 80 % 0.0 in
15:37 18.8 °F 15.1 °F 1021.6 in WNW 4.8 mph 9.7 mph 79 % 0.0 in
15:42 18.8 °F 15.1 °F 1021.6 in WNW 4.8 mph 9.7 mph 79 % 0.0 in
15:47 18.9 °F 14.8 °F 1021.6 in WNW 4.8 mph 9.7 mph 77 % 0.0 in
15:52 19.1 °F 15.2 °F 1021.6 in WNW 3.2 mph 9.7 mph 78 % 0.0 in
15:57 19.2 °F 14.9 °F 1021.6 in Calm   8.0 mph 76 % 0.0 in
16:02 19.3 °F 15.4 °F 1021.6 in NW 8.0 mph 8.0 mph 78 % 0.0 in
16:12 19.2 °F 15.1 °F 1021.6 in Calm   9.7 mph 77 % 0.0 in
16:22 19.2 °F 14.5 °F 1021.6 in WNW 3.2 mph 8.0 mph 74 % 0.0 in
16:32 19.3 °F 14.8 °F 1021.6 in WNW 4.8 mph 8.0 mph 75 % 0.0 in
16:42 18.9 °F 14.8 °F 1021.6 in WNW 4.8 mph 8.0 mph 77 % 0.0 in
16:47 18.8 °F 14.9 °F 1021.6 in West 3.2 mph 8.0 mph 78 % 0.0 in
16:52 18.8 °F 14.9 °F 1021.6 in NW 3.2 mph 8.0 mph 78 % 0.0 in
16:57 18.7 °F 14.8 °F 1021.6 in WNW 6.4 mph 8.0 mph 78 % 0.0 in
17:02 18.6 °F 14.9 °F 1021.6 in West 6.4 mph 8.0 mph 79 % 0.0 in
17:07 18.4 °F 14.5 °F 1021.9 in West 8.0 mph 8.0 mph 78 % 0.0 in
17:12 18.3 °F 14.4 °F 1021.6 in WNW 4.8 mph 8.0 mph 78 % 0.0 in
17:17 18.3 °F 14.4 °F 1021.6 in Calm   9.7 mph 78 % 0.0 in
17:22 18.3 °F 14.4 °F 1021.6 in West 1.6 mph 9.7 mph 78 % 0.0 in
17:27 18.3 °F 14.4 °F 1021.9 in West 3.2 mph 8.0 mph 78 % 0.0 in
17:32 18.2 °F 14.5 °F 1021.9 in WNW 3.2 mph 8.0 mph 79 % 0.0 in
17:37 18.2 °F 14.5 °F 1021.9 in WNW 3.2 mph 9.7 mph 79 % 0.0 in
17:42 18.1 °F 14.6 °F 1021.9 in WNW 4.8 mph 9.7 mph 80 % 0.0 in
17:52 18.1 °F 14.6 °F 1021.9 in Calm   8.0 mph 80 % 0.0 in
17:57 18.1 °F 14.8 °F 1021.9 in WNW 3.2 mph 6.4 mph 81 % 0.0 in
18:02 18.0 °F 14.7 °F 1021.9 in WNW 1.6 mph 6.4 mph 81 % 0.0 in
18:12 17.9 °F 14.6 °F 1021.9 in West 1.6 mph 4.8 mph 81 % 0.0 in
18:17 17.8 °F 14.7 °F 1021.9 in WNW 3.2 mph 4.8 mph 82 % 0.0 in
18:32 17.7 °F 14.6 °F 1022.2 in Calm   6.4 mph 82 % 0.0 in
18:37 17.7 °F 14.6 °F 1022.2 in Calm   6.4 mph 82 % 0.0 in
18:42 17.6 °F 14.5 °F 1022.2 in NW 1.6 mph 4.8 mph 82 % 0.0 in
18:52 17.5 °F 14.4 °F 1022.2 in Calm   4.8 mph 82 % 0.0 in
18:57 17.6 °F 14.5 °F 1022.2 in Calm   4.8 mph 82 % 0.0 in
19:02 17.7 °F 14.8 °F 1022.2 in Calm   4.8 mph 83 % 0.0 in
19:12 17.6 °F 14.7 °F 1022.2 in Calm   3.2 mph 83 % 0.0 in
19:17 17.5 °F 14.6 °F 1022.2 in Calm     83 % 0.0 in
19:22 17.4 °F 14.5 °F 1022.2 in Calm     83 % 0.0 in
19:32 17.2 °F 14.7 °F 1022.2 in Calm   1.6 mph 85 % 0.0 in
19:37 17.1 °F 14.6 °F 1022.2 in Calm   1.6 mph 85 % 0.0 in
19:42 17.0 °F 14.5 °F 1022.2 in Calm   1.6 mph 85 % 0.0 in
19:52 16.9 °F 14.2 °F 1022.2 in Calm   1.6 mph 84 % 0.0 in
19:57 16.9 °F 14.2 °F 1022.6 in Calm   1.6 mph 84 % 0.0 in
20:02 16.8 °F 14.1 °F 1022.6 in Calm   1.6 mph 84 % 0.0 in
20:12 16.6 °F 14.2 °F 1022.6 in Calm     86 % 0.0 in
20:17 16.4 °F 14.1 °F 1022.6 in Calm     86 % 0.0 in
20:22 16.3 °F 14.1 °F 1022.6 in Calm     87 % 0.0 in
20:32 16.3 °F 14.3 °F 1022.6 in Calm     88 % 0.0 in
20:37 16.2 °F 14.2 °F 1022.9 in Calm     88 % 0.0 in
20:42 16.0 °F 14.2 °F 1022.9 in Calm     89 % 0.0 in
20:57 16.0 °F 14.2 °F 1022.9 in Calm     89 % 0.0 in
21:02 15.8 °F 14.2 °F 1022.9 in Calm     90 % 0.0 in
21:12 15.8 °F 14.3 °F 1022.9 in Calm     91 % 0.0 in
21:17 15.9 °F 14.3 °F 1022.9 in Calm     90 % 0.0 in
21:27 15.9 °F 14.3 °F 1022.9 in Calm     90 % 0.0 in
21:32 15.8 °F 14.2 °F 1022.9 in Calm     90 % 0.0 in
21:37 15.7 °F 14.2 °F 1022.9 in Calm     91 % 0.0 in
21:42 15.6 °F 14.1 °F 1022.9 in Calm     91 % 0.0 in
21:47 15.6 °F 14.3 °F 1022.9 in Calm     92 % 0.0 in
21:52 15.5 °F 14.2 °F 1022.9 in Calm     92 % 0.0 in
21:57 15.4 °F 14.1 °F 1022.9 in Calm     92 % 0.0 in
22:02 15.3 °F 14.0 °F 1022.9 in Calm     92 % 0.0 in
22:12 15.1 °F 14.0 °F 1022.9 in Calm     93 % 0.0 in
22:17 15.0 °F 13.9 °F 1022.9 in Calm     93 % 0.0 in
22:22 15.0 °F 13.9 °F 1022.9 in Calm     93 % 0.0 in
22:32 14.9 °F 13.9 °F 1022.9 in Calm     94 % 0.0 in
22:42 14.9 °F 13.9 °F 1022.9 in Calm     94 % 0.0 in
22:47 14.8 °F 13.8 °F 1022.9 in Calm     94 % 0.0 in
22:52 14.7 °F 13.7 °F 1022.9 in Calm     94 % 0.0 in
22:57 14.5 °F 13.5 °F 1022.9 in Calm     94 % 0.0 in
23:02 14.4 °F 13.4 °F 1023.2 in Calm     94 % 0.0 in
23:12 14.3 °F 13.5 °F 1022.9 in Calm     95 % 0.0 in
23:17 14.1 °F 13.1 °F 1022.9 in Calm     94 % 0.0 in
23:22 14.1 °F 13.3 °F 1022.9 in Calm     95 % 0.0 in
23:27 14.0 °F 13.2 °F 1022.9 in Calm     95 % 0.0 in
23:32 13.9 °F 13.1 °F 1022.9 in Calm     95 % 0.0 in
23:42 13.8 °F 13.0 °F 1022.9 in Calm     95 % 0.0 in
23:47 13.7 °F 12.9 °F 1022.9 in Calm     95 % 0.0 in
23:52 13.6 °F 12.8 °F 1022.9 in Calm     95 % 0.0 in
23:57 13.6 °F 13.0 °F 1022.9 in Calm     96 % 0.0 in
Meteo18
Compliments of Weather Underground - 4 mb

Script developed by  Jim McMurry - jmcmurry@mwt.net Adapted for the template by  Wim van der Kuil - Leuven-Template.eu

You find our weather info also at:

European Weather Network

Weather Underground

Equipment we use:

Weather-station
Davis Vue

Weather-program
Meteobridge

Weather-server
Raspberry PI 2 B+

Provider
1 and 1

Davis Vue

Meteobridge

Raspberry PI 2 B+

1 and 1